Time;durP1;ratioP1;P1;durP2;ratioP2;P2;SDS_P1;SDS_P2;PMS_P1;PMS_P2;Temp;Humidity;BMP_temperature;BMP_pressure;BME280_temperature;BME280_humidity;BME280_pressure;Samples;Min_cycle;Max_cycle;Signal;HPM_P1;HPM_P2
2023/04/29 00:00:56;;;;;;;58.95;26.02;;;;;;;;;;6265675;28;20040;-48
2023/04/29 00:03:57;;;;;;;76.68;31.15;;;;;;;;;;6266414;28;20047;-47
2023/04/29 00:06:57;;;;;;;60.97;26.30;;;;;;;;;;6274677;28;20055;-47
2023/04/29 00:09:58;;;;;;;68.10;28.98;;;;;;;;;;6272011;28;20046;-55
2023/04/29 00:12:58;;;;;;;61.22;26.70;;;;;;;;;;6274183;28;20052;-55
2023/04/29 00:15:59;;;;;;;61.08;27.58;;;;;;;;;;6269467;28;20036;-48
2023/04/29 00:19:00;;;;;;;63.97;27.63;;;;;;;;;;6268939;28;20043;-47
2023/04/29 00:22:00;;;;;;;66.35;27.05;;;;;;;;;;6266992;28;20453;-50
2023/04/29 00:25:01;;;;;;;66.00;27.92;;;;;;;;;;6269400;28;20182;-47
2023/04/29 00:28:06;;;;;;;69.22;26.73;;;;;;;;;;6267095;28;20408;-48
2023/04/29 00:31:07;;;;;;;61.45;27.63;;;;;;;;;;6270087;28;20049;-53
2023/04/29 00:34:07;;;;;;;67.78;26.67;;;;;;;;;;6265396;28;20354;-48
2023/04/29 00:37:08;;;;;;;61.47;27.92;;;;;;;;;;6265496;28;20028;-48
2023/04/29 00:40:09;;;;;;;69.80;29.45;;;;;;;;;;6266932;28;20081;-47
2023/04/29 00:43:10;;;;;;;62.72;26.23;;;;;;;;;;6268597;28;20048;-47
2023/04/29 00:46:10;;;;;;;63.75;25.98;;;;;;;;;;6264034;28;20076;-49
2023/04/29 00:49:12;;;;;;;62.95;26.88;;;;;;;;;;6264356;28;20041;-46
2023/04/29 00:52:13;;;;;;;;;;;;;;;;;;6264834;28;20714;-48
2023/04/29 00:55:14;;;;;;;60.15;25.60;;;;;;;;;;6264866;28;19925;-47
2023/04/29 00:58:16;;;;;;;69.38;28.13;;;;;;;;;;6263215;28;20060;-55
2023/04/29 01:01:20;;;;;;;62.33;27.63;;;;;;;;;;6265696;28;20052;-55
2023/04/29 01:04:21;;;;;;;58.78;26.83;;;;;;;;;;6265275;28;20049;-47
2023/04/29 01:07:46;;;;;;;57.17;25.67;;;;;;;;;;6263657;28;20052;-49
2023/04/29 01:11:10;;;;;;;62.95;26.50;;;;;;;;;;6264486;28;20051;-55
2023/04/29 01:14:11;;;;;;;67.00;25.88;;;;;;;;;;6263051;28;20404;-47
2023/04/29 01:17:18;;;;;;;60.87;25.37;;;;;;;;;;6263491;28;20091;-49
2023/04/29 01:20:21;;;;;;;59.72;26.52;;;;;;;;;;6266923;28;20656;-47
2023/04/29 01:23:25;;;;;;;62.63;25.60;;;;;;;;;;6266729;28;20055;-47
2023/04/29 01:26:30;;;;;;;61.83;25.67;;;;;;;;;;6268967;28;20075;-56
2023/04/29 01:29:42;;;;;;;60.03;24.70;;;;;;;;;;6270979;28;20045;-46
2023/04/29 01:32:52;;;;;;;62.50;28.27;;;;;;;;;;6270672;28;20045;-46
2023/04/29 01:36:32;;;;;;;62.67;25.20;;;;;;;;;;6269446;28;20041;-49
2023/04/29 01:39:56;;;;;;;58.83;25.85;;;;;;;;;;6271502;28;20053;-49
2023/04/29 01:43:02;;;;;;;64.15;25.13;;;;;;;;;;6270104;28;20403;-50
2023/04/29 01:46:05;;;;;;;63.15;25.70;;;;;;;;;;6268743;28;20052;-49
2023/04/29 01:49:06;;;;;;;62.95;25.15;;;;;;;;;;6271397;28;20044;-54
2023/04/29 01:52:07;;;;;;;61.25;24.73;;;;;;;;;;6267648;28;20124;-48
2023/04/29 01:55:08;;;;;;;60.13;25.60;;;;;;;;;;6269521;28;20044;-50
2023/04/29 01:58:11;;;;;;;60.65;26.30;;;;;;;;;;6268410;28;20041;-58
2023/04/29 02:01:13;;;;;;;56.67;25.45;;;;;;;;;;6267030;28;20475;-52
2023/04/29 02:04:13;;;;;;;56.50;26.98;;;;;;;;;;6267841;28;20087;-50
2023/04/29 02:07:14;;;;;;;54.95;27.13;;;;;;;;;;6268683;28;20045;-50
2023/04/29 02:10:14;;;;;;;68.90;28.55;;;;;;;;;;6270562;28;20037;-46
2023/04/29 02:13:15;;;;;;;66.75;28.23;;;;;;;;;;6266195;28;20389;-50
2023/04/29 02:16:15;;;;;;;62.70;27.17;;;;;;;;;;6267282;28;20041;-52
2023/04/29 02:19:16;;;;;;;59.90;27.15;;;;;;;;;;6267852;28;20040;-57
2023/04/29 02:22:17;;;;;;;62.72;28.75;;;;;;;;;;6268417;28;20057;-58
2023/04/29 02:25:18;;;;;;;62.13;27.13;;;;;;;;;;6269290;28;20047;-54
2023/04/29 02:28:18;;;;;;;66.35;26.42;;;;;;;;;;6269371;28;20056;-47
2023/04/29 02:31:19;;;;;;;60.22;26.90;;;;;;;;;;6266416;28;20881;-47
2023/04/29 02:34:19;;;;;;;54.65;25.00;;;;;;;;;;6268745;28;20769;-46
2023/04/29 02:37:20;;;;;;;59.85;26.15;;;;;;;;;;6269579;28;20040;-47
2023/04/29 02:40:20;;;;;;;55.47;26.45;;;;;;;;;;6267221;28;20041;-49
2023/04/29 02:43:22;;;;;;;62.90;25.25;;;;;;;;;;6264369;28;20049;-47
2023/04/29 02:46:22;;;;;;;65.07;27.98;;;;;;;;;;6268010;28;20041;-49
2023/04/29 02:49:23;;;;;;;58.75;27.02;;;;;;;;;;6268966;28;20466;-49
2023/04/29 02:52:23;;;;;;;58.95;25.92;;;;;;;;;;6268070;28;20484;-49
2023/04/29 02:55:25;;;;;;;59.53;26.08;;;;;;;;;;6268304;28;21012;-48
2023/04/29 02:58:26;;;;;;;62.63;27.35;;;;;;;;;;6267749;28;20044;-47
2023/04/29 03:01:26;;;;;;;58.83;26.13;;;;;;;;;;6266236;28;20553;-50
2023/04/29 03:04:27;;;;;;;58.28;26.30;;;;;;;;;;6266170;28;20045;-49
2023/04/29 03:07:28;;;;;;;60.78;27.38;;;;;;;;;;6269453;28;20079;-47
2023/04/29 03:10:29;;;;;;;66.22;29.02;;;;;;;;;;6262384;28;20072;-47
2023/04/29 03:13:30;;;;;;;63.65;26.67;;;;;;;;;;6263491;28;20045;-57
2023/04/29 03:16:30;;;;;;;63.92;27.42;;;;;;;;;;6268481;28;20052;-50
2023/04/29 03:19:31;;;;;;;61.13;28.02;;;;;;;;;;6267091;28;20531;-58
2023/04/29 03:22:31;;;;;;;65.38;28.38;;;;;;;;;;6266488;28;20051;-52
2023/04/29 03:25:32;;;;;;;65.82;28.05;;;;;;;;;;6269539;28;20559;-48
2023/04/29 03:28:33;;;;;;;69.88;29.80;;;;;;;;;;6264748;28;20099;-49
2023/04/29 03:31:34;;;;;;;69.10;28.33;;;;;;;;;;6265310;28;20051;-58
2023/04/29 03:34:34;;;;;;;76.20;29.02;;;;;;;;;;6265781;28;20095;-55
2023/04/29 03:37:35;;;;;;;64.85;28.80;;;;;;;;;;6268380;28;20085;-52
2023/04/29 03:40:35;;;;;;;63.80;28.23;;;;;;;;;;6266422;28;20049;-48
2023/04/29 03:43:36;;;;;;;78.88;30.52;;;;;;;;;;6267791;28;20744;-49
2023/04/29 03:46:36;;;;;;;69.75;29.95;;;;;;;;;;6268503;28;20047;-46
2023/04/29 03:49:38;;;;;;;69.85;29.63;;;;;;;;;;6274428;28;20578;-50
2023/04/29 03:52:38;;;;;;;65.13;28.77;;;;;;;;;;6272240;28;20037;-47
2023/04/29 03:55:39;;;;;;;76.03;31.10;;;;;;;;;;6266670;28;20140;-45
2023/04/29 03:58:40;;;;;;;65.15;28.10;;;;;;;;;;6265481;28;20044;-46
2023/04/29 04:01:40;;;;;;;63.15;28.33;;;;;;;;;;6263876;28;20081;-51
2023/04/29 04:04:41;;;;;;;67.88;28.10;;;;;;;;;;6267335;28;20910;-46
2023/04/29 04:07:42;;;;;;;70.32;28.73;;;;;;;;;;6267240;28;20076;-52
2023/04/29 04:10:43;;;;;;;62.75;27.90;;;;;;;;;;6271393;28;20060;-47
2023/04/29 04:13:43;;;;;;;72.68;29.23;;;;;;;;;;6270363;28;20037;-48
2023/04/29 04:16:44;;;;;;;74.32;29.35;;;;;;;;;;6267433;28;20048;-47
2023/04/29 04:19:45;;;;;;;89.87;32.40;;;;;;;;;;6266800;28;20408;-46
2023/04/29 04:22:46;;;;;;;108.72;34.72;;;;;;;;;;6266424;28;20048;-51
2023/04/29 04:25:47;;;;;;;101.93;35.33;;;;;;;;;;6265115;28;20201;-48
2023/04/29 04:28:48;;;;;;;104.00;36.13;;;;;;;;;;6264094;28;20048;-46
2023/04/29 04:31:49;;;;;;;110.38;36.03;;;;;;;;;;6263225;28;20041;-50
2023/04/29 04:34:49;;;;;;;98.47;32.50;;;;;;;;;;6266857;28;20099;-53
2023/04/29 04:37:51;;;;;;;93.97;32.63;;;;;;;;;;6266348;28;20122;-50
2023/04/29 04:40:51;;;;;;;83.88;32.00;;;;;;;;;;6264209;28;20428;-47
2023/04/29 04:43:52;;;;;;;93.53;36.42;;;;;;;;;;6264981;28;20076;-47
2023/04/29 04:46:52;;;;;;;88.80;31.98;;;;;;;;;;6267779;28;20044;-49
2023/04/29 04:49:53;;;;;;;88.30;32.28;;;;;;;;;;6278092;28;20136;-49
2023/04/29 04:52:55;;;;;;;95.28;33.72;;;;;;;;;;6266607;28;21040;-46
2023/04/29 04:56:00;;;;;;;91.57;32.30;;;;;;;;;;6266982;28;20036;-50
2023/04/29 04:59:00;;;;;;;78.70;29.50;;;;;;;;;;6267993;28;20135;-49
2023/04/29 05:02:01;;;;;;;75.00;27.20;;;;;;;;;;6267825;28;20074;-53
2023/04/29 05:05:01;;;;;;;72.13;27.60;;;;;;;;;;6272282;28;20044;-52
2023/04/29 05:08:02;;;;;;;74.10;27.83;;;;;;;;;;6273589;28;20118;-50
2023/04/29 05:11:03;;;;;;;68.93;28.55;;;;;;;;;;6269027;28;20052;-50
2023/04/29 05:14:03;;;;;;;103.40;42.35;;;;;;;;;;6269545;28;20047;-46
2023/04/29 05:17:04;;;;;;;69.85;27.05;;;;;;;;;;6267970;28;20048;-49
2023/04/29 05:20:05;;;;;;;69.88;27.52;;;;;;;;;;6269362;28;20048;-54
2023/04/29 05:23:06;;;;;;;66.82;27.30;;;;;;;;;;6271042;28;20084;-47
2023/04/29 05:26:07;;;;;;;64.57;26.02;;;;;;;;;;6273769;28;20036;-50
2023/04/29 05:29:07;;;;;;;72.63;26.63;;;;;;;;;;6269272;28;20045;-50
2023/04/29 05:32:08;;;;;;;75.43;29.38;;;;;;;;;;6267295;28;20801;-49
2023/04/29 05:35:09;;;;;;;65.72;25.70;;;;;;;;;;6268514;28;20040;-50
2023/04/29 05:38:09;;;;;;;61.05;25.38;;;;;;;;;;6268605;28;20156;-55
2023/04/29 05:41:10;;;;;;;64.40;26.58;;;;;;;;;;6263999;28;20432;-55
2023/04/29 05:44:10;;;;;;;140.77;55.58;;;;;;;;;;6264073;28;20033;-58
2023/04/29 05:47:11;;;;;;;80.03;32.67;;;;;;;;;;6264317;28;20041;-51
2023/04/29 05:50:12;;;;;;;57.65;26.75;;;;;;;;;;6266441;28;20067;-51
2023/04/29 05:53:12;;;;;;;71.50;30.88;;;;;;;;;;6269520;28;20129;-49
2023/04/29 05:56:13;;;;;;;70.00;31.23;;;;;;;;;;6263797;28;20054;-50
2023/04/29 05:59:14;;;;;;;66.05;30.83;;;;;;;;;;6267292;28;20052;-49
2023/04/29 06:02:15;;;;;;;77.60;32.25;;;;;;;;;;6266613;28;20206;-49
2023/04/29 06:05:15;;;;;;;77.72;29.33;;;;;;;;;;6269370;28;20052;-54
2023/04/29 06:08:16;;;;;;;79.90;30.42;;;;;;;;;;6265511;28;20055;-51
2023/04/29 06:11:17;;;;;;;78.65;27.20;;;;;;;;;;6266359;28;20167;-50
2023/04/29 06:14:19;;;;;;;65.00;25.00;;;;;;;;;;6265741;28;20607;-51
2023/04/29 06:17:20;;;;;;;69.07;26.88;;;;;;;;;;6263254;28;20040;-60
2023/04/29 06:20:21;;;;;;;67.28;28.08;;;;;;;;;;6263818;28;20047;-50
2023/04/29 06:23:21;;;;;;;55.75;25.17;;;;;;;;;;6266921;28;20048;-48
2023/04/29 06:26:22;;;;;;;61.28;24.90;;;;;;;;;;6266594;28;20132;-48
2023/04/29 06:29:22;;;;;;;56.55;23.70;;;;;;;;;;6263891;28;20041;-50
2023/04/29 06:32:23;;;;;;;57.20;22.23;;;;;;;;;;6263247;28;20769;-61
2023/04/29 06:35:24;;;;;;;54.38;21.75;;;;;;;;;;6262373;28;20473;-53
2023/04/29 06:38:24;;;;;;;47.78;20.35;;;;;;;;;;6267190;28;20089;-54
2023/04/29 06:41:26;;;;;;;47.35;20.65;;;;;;;;;;6260139;28;22336;-58
2023/04/29 06:44:26;;;;;;;56.42;22.65;;;;;;;;;;6266193;28;20611;-50
2023/04/29 06:47:27;;;;;;;48.60;20.45;;;;;;;;;;6271283;28;20048;-55
2023/04/29 06:50:28;;;;;;;43.63;19.73;;;;;;;;;;6274751;28;20044;-59
2023/04/29 06:53:28;;;;;;;43.55;18.77;;;;;;;;;;6273639;28;20049;-51
2023/04/29 06:56:29;;;;;;;38.88;17.15;;;;;;;;;;6274292;28;20106;-50
2023/04/29 06:59:30;;;;;;;39.47;18.25;;;;;;;;;;6268986;28;20504;-52
2023/04/29 07:02:30;;;;;;;42.35;19.48;;;;;;;;;;6268998;28;20812;-58
2023/04/29 07:05:31;;;;;;;39.50;18.52;;;;;;;;;;6273840;28;20053;-57
2023/04/29 07:08:32;;;;;;;50.45;19.98;;;;;;;;;;6265594;28;20511;-51
2023/04/29 07:11:32;;;;;;;40.25;19.92;;;;;;;;;;6264664;28;20037;-50
2023/04/29 07:14:33;;;;;;;42.40;19.58;;;;;;;;;;6265508;28;20048;-55
2023/04/29 07:17:34;;;;;;;34.05;16.67;;;;;;;;;;6261083;28;20052;-53
2023/04/29 07:20:37;;;;;;;36.97;17.92;;;;;;;;;;6264466;28;20863;-52
2023/04/29 07:23:38;;;;;;;35.88;17.35;;;;;;;;;;6264938;28;20446;-50
2023/04/29 07:26:39;;;;;;;35.53;16.58;;;;;;;;;;6264801;28;20041;-59
2023/04/29 07:29:39;;;;;;;32.78;16.42;;;;;;;;;;6263089;28;20495;-51
2023/04/29 07:32:40;;;;;;;31.70;16.30;;;;;;;;;;6263151;28;20037;-51
2023/04/29 07:35:43;;;;;;;43.35;20.73;;;;;;;;;;6265149;28;20100;-55
2023/04/29 07:38:44;;;;;;;32.45;16.27;;;;;;;;;;6261892;28;20048;-50
2023/04/29 07:41:44;;;;;;;31.58;16.85;;;;;;;;;;6262871;28;20076;-48
2023/04/29 07:44:45;;;;;;;30.63;16.02;;;;;;;;;;6264967;28;20060;-52
2023/04/29 07:47:46;;;;;;;25.50;14.88;;;;;;;;;;6266247;28;20041;-49
2023/04/29 07:50:46;;;;;;;25.83;14.77;;;;;;;;;;6263635;28;20047;-52
2023/04/29 07:53:47;;;;;;;26.45;14.40;;;;;;;;;;6267277;28;20052;-52
2023/04/29 07:56:48;;;;;;;23.83;14.80;;;;;;;;;;6263524;28;20069;-51
2023/04/29 07:59:52;;;;;;;25.48;13.15;;;;;;;;;;6263240;28;20113;-54
2023/04/29 08:02:54;;;;;;;27.83;15.40;;;;;;;;;;6267014;28;20655;-49
2023/04/29 08:06:00;;;;;;;25.70;14.02;;;;;;;;;;6266051;28;20416;-48
2023/04/29 08:09:01;;;;;;;18.95;12.02;;;;;;;;;;6265666;28;20048;-59
2023/04/29 08:12:01;;;;;;;21.35;12.18;;;;;;;;;;6269248;28;20094;-60
2023/04/29 08:15:02;;;;;;;21.50;12.23;;;;;;;;;;6264902;28;20048;-51
2023/04/29 08:18:03;;;;;;;22.55;11.90;;;;;;;;;;6268464;28;20407;-49
2023/04/29 08:21:04;;;;;;;22.58;11.98;;;;;;;;;;6270050;28;20567;-55
2023/04/29 08:24:04;;;;;;;23.20;14.88;;;;;;;;;;6268777;28;20036;-48
2023/04/29 08:27:05;;;;;;;22.00;12.05;;;;;;;;;;6270378;28;20061;-49
2023/04/29 08:30:06;;;;;;;22.17;11.85;;;;;;;;;;6268845;28;20049;-53
2023/04/29 08:33:07;;;;;;;22.77;13.00;;;;;;;;;;6261420;28;20033;-50
2023/04/29 08:36:08;;;;;;;24.20;13.40;;;;;;;;;;6264194;28;20156;-52
2023/04/29 08:39:09;;;;;;;21.75;11.75;;;;;;;;;;6264318;28;20052;-51
2023/04/29 08:42:09;;;;;;;20.50;11.38;;;;;;;;;;6262880;28;20048;-58
2023/04/29 08:45:12;;;;;;;21.55;11.82;;;;;;;;;;6261526;28;20432;-56
2023/04/29 08:48:12;;;;;;;;;;;;;;;;;;6266447;28;20421;-61
2023/04/29 08:51:13;;;;;;;14.10;8.45;;;;;;;;;;6278387;28;19925;-66
2023/04/29 08:54:14;;;;;;;16.77;9.32;;;;;;;;;;6268549;28;20044;-59
2023/04/29 08:57:15;;;;;;;13.77;8.70;;;;;;;;;;6277159;28;20078;-58
2023/04/29 09:00:17;;;;;;;15.52;9.93;;;;;;;;;;6285202;28;20893;-59
2023/04/29 09:03:51;;;;;;;14.32;8.43;;;;;;;;;;6282546;28;20040;-56
2023/04/29 09:06:55;;;;;;;15.48;9.15;;;;;;;;;;6260675;28;20471;-57
2023/04/29 09:09:57;;;;;;;15.40;8.88;;;;;;;;;;6262834;28;20043;-58
2023/04/29 09:12:58;;;;;;;15.98;8.80;;;;;;;;;;6264453;28;20064;-63
2023/04/29 09:15:59;;;;;;;40.75;13.80;;;;;;;;;;6264701;28;20053;-56
2023/04/29 09:18:59;;;;;;;18.33;9.60;;;;;;;;;;6265506;28;21049;-60
2023/04/29 09:22:02;;;;;;;15.75;9.23;;;;;;;;;;6262302;28;20084;-58
2023/04/29 09:25:12;;;;;;;16.30;9.35;;;;;;;;;;6260425;28;20514;-56
2023/04/29 09:28:15;;;;;;;16.17;10.20;;;;;;;;;;6262690;28;20067;-58
2023/04/29 09:31:26;;;;;;;21.65;10.10;;;;;;;;;;6263317;28;20057;-58
2023/04/29 09:34:36;;;;;;;16.77;10.73;;;;;;;;;;6262325;28;20096;-64
2023/04/29 09:37:36;;;;;;;14.52;9.07;;;;;;;;;;6264366;28;20388;-60
2023/04/29 09:40:38;;;;;;;16.75;10.27;;;;;;;;;;6264657;28;20057;-61
2023/04/29 09:43:39;;;;;;;17.80;10.90;;;;;;;;;;6264697;28;20045;-68
2023/04/29 09:46:39;;;;;;;17.52;10.15;;;;;;;;;;6267380;28;20106;-57
2023/04/29 09:49:44;;;;;;;18.40;11.02;;;;;;;;;;6284892;28;20449;-61
2023/04/29 09:52:45;;;;;;;16.60;10.23;;;;;;;;;;6282473;28;20052;-57
2023/04/29 09:55:51;;;;;;;15.95;10.40;;;;;;;;;;6281009;28;20582;-63
2023/04/29 09:58:52;;;;;;;17.63;10.98;;;;;;;;;;6284274;28;20048;-54
2023/04/29 10:01:55;;;;;;;27.63;14.55;;;;;;;;;;6279606;28;20077;-56
2023/04/29 10:04:57;;;;;;;27.83;13.07;;;;;;;;;;6282052;28;20834;-61
2023/04/29 10:07:58;;;;;;;23.70;12.93;;;;;;;;;;6281768;28;20059;-55
2023/04/29 10:11:01;;;;;;;24.60;11.80;;;;;;;;;;6282829;28;20041;-57
2023/04/29 10:14:04;;;;;;;18.90;11.80;;;;;;;;;;6283893;28;20110;-56
2023/04/29 10:17:20;;;;;;;18.38;10.85;;;;;;;;;;6280003;28;20085;-59
2023/04/29 10:20:23;;;;;;;18.45;11.20;;;;;;;;;;6283048;28;20044;-64
2023/04/29 10:23:24;;;;;;;19.55;11.05;;;;;;;;;;6283291;28;20053;-62
2023/04/29 10:26:29;;;;;;;17.43;11.13;;;;;;;;;;6279876;28;20601;-58
2023/04/29 10:29:33;;;;;;;18.23;10.10;;;;;;;;;;6282511;28;20540;-57
2023/04/29 10:32:36;;;;;;;18.48;10.32;;;;;;;;;;6283112;28;20579;-64
2023/04/29 10:35:37;;;;;;;15.90;10.90;;;;;;;;;;6280997;28;20058;-61
2023/04/29 10:38:40;;;;;;;22.13;11.65;;;;;;;;;;6282007;28;20514;-58
2023/04/29 10:41:46;;;;;;;14.27;9.75;;;;;;;;;;6282915;28;20062;-57
2023/04/29 10:45:20;;;;;;;15.38;10.65;;;;;;;;;;6282404;28;20544;-63
2023/04/29 10:48:24;;;;;;;20.23;11.10;;;;;;;;;;6282436;28;20788;-58
2023/04/29 10:51:32;;;;;;;16.15;10.13;;;;;;;;;;6281389;28;20048;-56
2023/04/29 10:54:32;;;;;;;19.35;10.10;;;;;;;;;;6282308;28;20064;-58
2023/04/29 10:57:34;;;;;;;15.77;8.98;;;;;;;;;;6279993;28;20041;-57
2023/04/29 11:00:37;;;;;;;12.07;7.35;;;;;;;;;;6280302;28;20060;-57
2023/04/29 11:03:49;;;;;;;12.43;7.80;;;;;;;;;;6281252;28;20083;-55
2023/04/29 11:07:01;;;;;;;13.38;8.38;;;;;;;;;;6279757;28;20582;-59
2023/04/29 11:10:02;;;;;;;14.88;7.97;;;;;;;;;;6282330;28;20048;-59
2023/04/29 11:13:27;;;;;;;12.75;7.80;;;;;;;;;;6278801;28;20574;-58
2023/04/29 11:16:27;;;;;;;12.70;8.63;;;;;;;;;;6279135;28;20700;-61
2023/04/29 11:19:34;;;;;;;15.70;8.20;;;;;;;;;;6281341;28;20053;-58
2023/04/29 11:22:34;;;;;;;13.95;8.88;;;;;;;;;;6280469;28;20056;-62
2023/04/29 11:25:37;;;;;;;20.25;13.25;;;;;;;;;;6279141;28;20495;-56
2023/04/29 11:28:41;;;;;;;27.85;18.25;;;;;;;;;;6282190;28;20529;-58
2023/04/29 11:31:41;;;;;;;14.63;9.50;;;;;;;;;;6281396;28;20033;-55
2023/04/29 11:34:42;;;;;;;13.70;9.10;;;;;;;;;;6280582;28;20041;-54
2023/04/29 11:37:44;;;;;;;19.73;14.32;;;;;;;;;;6279941;28;20404;-56
2023/04/29 11:40:49;;;;;;;;;;;;;;;;;;6282700;28;20079;-56
2023/04/29 11:43:58;;;;;;;18.85;9.85;;;;;;;;;;6280442;28;20287;-57
2023/04/29 11:47:07;;;;;;;16.58;11.43;;;;;;;;;;6277647;28;20051;-56
2023/04/29 11:50:09;;;;;;;17.65;9.73;;;;;;;;;;6281130;28;20466;-61
2023/04/29 11:53:10;;;;;;;21.33;12.25;;;;;;;;;;6279720;28;20094;-54
2023/04/29 11:56:11;;;;;;;23.33;11.80;;;;;;;;;;6278335;28;20060;-61
2023/04/29 11:59:11;;;;;;;24.08;17.45;;;;;;;;;;6280997;28;20122;-56
2023/04/29 12:02:12;;;;;;;16.45;8.45;;;;;;;;;;6281153;28;20152;-57
2023/04/29 12:05:14;;;;;;;13.50;8.80;;;;;;;;;;6277663;28;20079;-57
2023/04/29 12:08:18;;;;;;;;;;;;;;;;;;6280862;28;20056;-55
2023/04/29 12:11:19;;;;;;;13.68;8.52;;;;;;;;;;6280992;28;19935;-58
2023/04/29 12:14:19;;;;;;;13.75;8.30;;;;;;;;;;6280271;28;20570;-67
2023/04/29 12:17:20;;;;;;;11.88;7.85;;;;;;;;;;6278839;28;20041;-60
2023/04/29 12:20:21;;;;;;;11.55;7.15;;;;;;;;;;6280880;28;20044;-51
2023/04/29 12:23:27;;;;;;;11.27;6.95;;;;;;;;;;6280854;28;20415;-52
2023/04/29 12:26:30;;;;;;;9.93;6.45;;;;;;;;;;6276842;28;20048;-58
2023/04/29 12:29:32;;;;;;;8.27;5.85;;;;;;;;;;6284412;28;20151;-56
2023/04/29 12:32:32;;;;;;;;;;;;;;;;;;6290846;28;20105;-59
2023/04/29 12:35:33;;;;;;;8.07;4.53;;;;;;;;;;6289263;28;19920;-56
2023/04/29 12:38:35;;;;;;;8.23;4.53;;;;;;;;;;6285396;28;20487;-53
2023/04/29 12:41:40;;;;;;;6.95;3.97;;;;;;;;;;6285672;28;20083;-56
2023/04/29 12:44:45;;;;;;;11.07;6.03;;;;;;;;;;6288502;28;20147;-52
2023/04/29 12:47:45;;;;;;;14.77;9.13;;;;;;;;;;6285133;28;20040;-54
2023/04/29 12:50:49;;;;;;;7.60;4.75;;;;;;;;;;6287869;28;20397;-56
2023/04/29 12:53:49;;;;;;;7.03;4.28;;;;;;;;;;6283422;28;20041;-66
2023/04/29 12:56:51;;;;;;;7.90;4.43;;;;;;;;;;6284253;28;20095;-57
2023/04/29 12:59:51;;;;;;;11.38;8.10;;;;;;;;;;6284519;28;20041;-53
2023/04/29 13:02:52;;;;;;;7.55;4.20;;;;;;;;;;6284887;28;20045;-70
2023/04/29 13:05:53;;;;;;;23.15;6.57;;;;;;;;;;6287736;28;20036;-52
2023/04/29 13:08:54;;;;;;;6.95;4.28;;;;;;;;;;6277191;28;20067;-71
2023/04/29 13:11:55;;;;;;;6.43;4.03;;;;;;;;;;6275677;28;20077;-58
2023/04/29 13:14:55;;;;;;;5.55;3.10;;;;;;;;;;6284794;28;20044;-60
2023/04/29 13:17:57;;;;;;;5.68;3.03;;;;;;;;;;6289090;28;20049;-66
2023/04/29 13:20:58;;;;;;;6.00;3.30;;;;;;;;;;6284364;28;20454;-52
2023/04/29 13:23:58;;;;;;;5.95;3.35;;;;;;;;;;6289838;28;20044;-71
2023/04/29 13:26:59;;;;;;;9.20;5.20;;;;;;;;;;6292520;28;20040;-54
2023/04/29 13:29:59;;;;;;;8.48;5.53;;;;;;;;;;6293389;28;20040;-54
2023/04/29 13:33:00;;;;;;;11.23;6.13;;;;;;;;;;6291867;28;20045;-54
2023/04/29 13:36:01;;;;;;;9.13;5.57;;;;;;;;;;6282918;28;20515;-69
2023/04/29 13:39:02;;;;;;;7.63;4.47;;;;;;;;;;6276542;28;20033;-59
2023/04/29 13:42:02;;;;;;;8.27;4.53;;;;;;;;;;6284907;28;20547;-63
2023/04/29 13:45:03;;;;;;;8.90;4.70;;;;;;;;;;6283702;28;20132;-65
2023/04/29 13:48:04;;;;;;;10.97;6.67;;;;;;;;;;6269810;28;20056;-56
2023/04/29 13:51:05;;;;;;;13.80;8.18;;;;;;;;;;6281704;28;20166;-61
2023/04/29 13:54:06;;;;;;;11.73;6.38;;;;;;;;;;6276364;28;20055;-51
2023/04/29 13:57:07;;;;;;;11.63;5.93;;;;;;;;;;6278039;28;20052;-46
2023/04/29 14:00:09;;;;;;;11.05;6.20;;;;;;;;;;6278159;28;20475;-49
2023/04/29 14:03:10;;;;;;;;;;;;;;;;;;6278894;28;20052;-52
2023/04/29 14:06:10;;;;;;;19.40;11.15;;;;;;;;;;6276089;28;20387;-64
2023/04/29 14:09:11;;;;;;;10.07;5.78;;;;;;;;;;6279405;28;20036;-60
2023/04/29 14:12:11;;;;;;;9.77;6.38;;;;;;;;;;6277787;28;20142;-51
2023/04/29 14:15:12;;;;;;;10.10;6.82;;;;;;;;;;6279546;28;20461;-58
2023/04/29 14:18:13;;;;;;;11.57;8.30;;;;;;;;;;6277895;28;20052;-51
2023/04/29 14:21:14;;;;;;;9.50;5.30;;;;;;;;;;6280412;28;20195;-46
2023/04/29 14:24:14;;;;;;;19.77;12.32;;;;;;;;;;6279709;28;20060;-49
2023/04/29 14:27:15;;;;;;;22.15;15.57;;;;;;;;;;6277397;28;20048;-52
2023/04/29 14:30:16;;;;;;;12.75;8.05;;;;;;;;;;6280197;28;20903;-49
2023/04/29 14:33:16;;;;;;;17.17;14.02;;;;;;;;;;6279824;28;20048;-50
2023/04/29 14:36:17;;;;;;;10.80;7.40;;;;;;;;;;6277086;28;20090;-46
2023/04/29 14:39:18;;;;;;;8.98;5.80;;;;;;;;;;6279212;28;20050;-48
2023/04/29 14:42:18;;;;;;;8.10;4.72;;;;;;;;;;6280826;28;20072;-49
2023/04/29 14:45:19;;;;;;;8.90;5.32;;;;;;;;;;6279805;28;20053;-50
2023/04/29 14:48:19;;;;;;;10.73;5.40;;;;;;;;;;6278595;28;20491;-62
2023/04/29 14:51:20;;;;;;;9.02;5.65;;;;;;;;;;6280956;28;20131;-52
2023/04/29 14:54:21;;;;;;;9.07;5.63;;;;;;;;;;6278415;28;20052;-52
2023/04/29 14:57:21;;;;;;;14.43;7.38;;;;;;;;;;6275243;28;20040;-47
2023/04/29 15:00:22;;;;;;;8.15;6.25;;;;;;;;;;6278711;28;20036;-57
2023/04/29 15:03:23;;;;;;;10.40;6.47;;;;;;;;;;6280343;28;20121;-51
2023/04/29 15:06:23;;;;;;;11.77;7.13;;;;;;;;;;6275162;28;20049;-49
2023/04/29 15:09:25;;;;;;;12.93;8.88;;;;;;;;;;6276546;28;20052;-47
2023/04/29 15:12:26;;;;;;;10.27;7.00;;;;;;;;;;6280259;28;20095;-50
2023/04/29 15:15:27;;;;;;;11.98;7.00;;;;;;;;;;6277361;28;20040;-52
2023/04/29 15:18:28;;;;;;;11.20;6.83;;;;;;;;;;6277405;28;20040;-49
2023/04/29 15:21:29;;;;;;;9.25;6.25;;;;;;;;;;6278201;28;20054;-52
2023/04/29 15:24:29;;;;;;;8.90;5.50;;;;;;;;;;6276596;28;20056;-47
2023/04/29 15:27:30;;;;;;;8.40;5.55;;;;;;;;;;6275267;28;21188;-50
2023/04/29 15:30:31;;;;;;;19.25;6.78;;;;;;;;;;6277417;28;20044;-51
2023/04/29 15:33:32;;;;;;;8.30;6.00;;;;;;;;;;6278579;28;20044;-49
2023/04/29 15:36:33;;;;;;;8.85;5.65;;;;;;;;;;6273685;28;20408;-51
2023/04/29 15:39:34;;;;;;;9.20;5.95;;;;;;;;;;6276814;28;20048;-49
2023/04/29 15:42:34;;;;;;;10.05;6.22;;;;;;;;;;6276860;28;20502;-46
2023/04/29 15:45:36;;;;;;;9.88;5.47;;;;;;;;;;6276146;28;20048;-50
2023/04/29 15:48:37;;;;;;;8.45;6.00;;;;;;;;;;6277400;28;20083;-51
2023/04/29 15:51:37;;;;;;;9.23;6.07;;;;;;;;;;6278235;28;20148;-51
2023/04/29 15:54:38;;;;;;;8.57;5.40;;;;;;;;;;6276463;28;20056;-51
2023/04/29 15:57:40;;;;;;;11.25;6.82;;;;;;;;;;6274558;28;20554;-49
2023/04/29 16:00:40;;;;;;;12.85;9.05;;;;;;;;;;6277438;28;20147;-51
2023/04/29 16:03:41;;;;;;;9.20;6.18;;;;;;;;;;6278063;28;20049;-48
2023/04/29 16:06:41;;;;;;;12.13;7.75;;;;;;;;;;6274795;28;20044;-46
2023/04/29 16:09:42;;;;;;;13.05;9.07;;;;;;;;;;6277251;28;20055;-47
2023/04/29 16:12:42;;;;;;;12.45;9.00;;;;;;;;;;6278174;28;20048;-50
2023/04/29 16:15:43;;;;;;;11.00;7.07;;;;;;;;;;6273825;28;20076;-48
2023/04/29 16:18:44;;;;;;;9.80;6.88;;;;;;;;;;6276844;28;20466;-49
2023/04/29 16:21:44;;;;;;;11.30;7.55;;;;;;;;;;6277085;28;20131;-50
2023/04/29 16:24:45;;;;;;;10.40;6.55;;;;;;;;;;6277139;28;20503;-47
2023/04/29 16:27:46;;;;;;;12.65;6.50;;;;;;;;;;6274458;28;20050;-49
2023/04/29 16:30:46;;;;;;;12.05;7.50;;;;;;;;;;6277713;28;20126;-50
2023/04/29 16:33:47;;;;;;;11.77;7.05;;;;;;;;;;6277911;28;20052;-52
2023/04/29 16:36:48;;;;;;;15.43;7.30;;;;;;;;;;6274103;28;20486;-57
2023/04/29 16:39:49;;;;;;;12.27;7.30;;;;;;;;;;6276281;28;20852;-49
2023/04/29 16:42:50;;;;;;;12.02;7.55;;;;;;;;;;6278075;28;20044;-52
2023/04/29 16:45:51;;;;;;;10.77;7.17;;;;;;;;;;6275201;28;20052;-48
2023/04/29 16:48:55;;;;;;;14.35;8.30;;;;;;;;;;6278380;28;20052;-55
2023/04/29 16:51:56;;;;;;;16.85;8.98;;;;;;;;;;6278460;28;20058;-49
2023/04/29 16:54:59;;;;;;;13.82;7.07;;;;;;;;;;6278314;28;20059;-48
2023/04/29 16:57:59;;;;;;;12.73;6.57;;;;;;;;;;6273105;28;20052;-54
2023/04/29 17:01:00;;;;;;;9.80;5.93;;;;;;;;;;6282089;28;20256;-47
2023/04/29 17:04:01;;;;;;;9.15;5.50;;;;;;;;;;6282661;28;20049;-49
2023/04/29 17:07:02;;;;;;;8.20;4.50;;;;;;;;;;6279205;28;20056;-49
2023/04/29 17:10:04;;;;;;;7.18;4.20;;;;;;;;;;6281684;28;20045;-56
2023/04/29 17:13:05;;;;;;;9.13;4.45;;;;;;;;;;6282197;28;20048;-52
2023/04/29 17:16:06;;;;;;;9.57;5.30;;;;;;;;;;6278934;28;20044;-47
2023/04/29 17:19:07;;;;;;;9.98;5.38;;;;;;;;;;6282333;28;20483;-56
2023/04/29 17:22:07;;;;;;;10.75;5.32;;;;;;;;;;6282884;28;20055;-47
2023/04/29 17:25:09;;;;;;;10.05;4.80;;;;;;;;;;6280010;28;20048;-65
2023/04/29 17:28:10;;;;;;;8.43;4.93;;;;;;;;;;6277539;28;20045;-49
2023/04/29 17:31:10;;;;;;;9.40;5.50;;;;;;;;;;6274354;28;20557;-53
2023/04/29 17:34:17;;;;;;;7.22;4.78;;;;;;;;;;6272857;28;20415;-52
2023/04/29 17:37:23;;;;;;;9.35;5.72;;;;;;;;;;6268111;28;20514;-50
2023/04/29 17:40:24;;;;;;;7.95;5.55;;;;;;;;;;6276886;28;20045;-49
2023/04/29 17:43:26;;;;;;;9.85;6.18;;;;;;;;;;6267460;28;20063;-50
2023/04/29 17:46:29;;;;;;;21.92;12.27;;;;;;;;;;6268001;28;20522;-50
2023/04/29 17:49:30;;;;;;;14.57;9.32;;;;;;;;;;6267763;28;20040;-55